createdAt,value
2018-11-05T00:05:00.866Z,12.90
2018-11-05T00:15:06.255Z,12.80
2018-11-05T00:25:12.503Z,13.00
2018-11-05T00:35:16.952Z,13.00
2018-11-05T00:45:21.421Z,12.90
2018-11-05T00:55:25.911Z,12.90
2018-11-05T01:05:30.377Z,12.90
2018-11-05T01:15:34.862Z,12.90
2018-11-05T01:25:39.409Z,12.80
2018-11-05T01:35:43.885Z,12.70
2018-11-05T01:45:48.342Z,12.60
2018-11-05T01:55:52.733Z,12.70
2018-11-05T02:06:01.731Z,12.70
2018-11-05T02:16:06.273Z,12.70
2018-11-05T02:26:10.782Z,12.80
2018-11-05T02:36:15.076Z,12.90
2018-11-05T02:46:19.630Z,12.90
2018-11-05T02:56:23.897Z,13.00
2018-11-05T03:06:28.161Z,13.00
2018-11-05T03:16:32.810Z,12.70
2018-11-05T03:26:37.358Z,13.00
2018-11-05T03:36:41.885Z,12.90
2018-11-05T03:46:46.932Z,12.70
2018-11-05T03:56:51.824Z,12.90
2018-11-05T04:06:56.210Z,13.00
2018-11-05T04:17:02.303Z,12.60
2018-11-05T04:27:06.754Z,12.70
2018-11-05T04:37:11.045Z,12.70
2018-11-05T04:47:15.340Z,12.70
2018-11-05T04:57:19.886Z,12.60
2018-11-05T05:07:24.323Z,12.50
2018-11-05T05:17:29.058Z,12.50
2018-11-05T05:27:33.525Z,12.50
2018-11-05T05:37:38.163Z,12.60
2018-11-05T05:47:43.196Z,12.60
2018-11-05T05:57:47.698Z,12.50
2018-11-05T06:07:52.304Z,12.60
2018-11-05T06:17:56.562Z,12.50
2018-11-05T06:28:01.142Z,12.50
2018-11-05T06:38:05.673Z,12.60
2018-11-05T06:48:10.179Z,12.40
2018-11-05T06:58:14.672Z,12.70
2018-11-05T07:08:19.122Z,12.70
2018-11-05T07:18:28.023Z,12.60
2018-11-05T07:28:32.550Z,12.50
2018-11-05T07:38:37.338Z,12.60
2018-11-05T07:48:41.902Z,12.60
2018-11-05T07:58:46.635Z,12.80
2018-11-05T08:08:54.703Z,12.90
2018-11-05T08:18:59.255Z,12.70
2018-11-05T08:29:03.813Z,12.60
2018-11-05T08:39:10.910Z,12.60
2018-11-05T08:49:15.651Z,12.90
2018-11-05T08:59:20.439Z,12.80
2018-11-05T09:09:24.989Z,12.80
2018-11-05T09:19:29.661Z,12.90
2018-11-05T09:29:34.239Z,13.00
2018-11-05T09:39:38.809Z,13.20
2018-11-05T09:49:43.459Z,13.10
2018-11-05T09:59:48.059Z,12.90
2018-11-05T10:09:52.815Z,13.30
2018-11-05T10:19:57.409Z,13.00
2018-11-05T10:30:02.162Z,13.00
2018-11-05T10:40:12.188Z,13.40
2018-11-05T10:50:17.634Z,13.80
2018-11-05T11:00:27.897Z,13.80
2018-11-05T11:10:33.207Z,14.00
2018-11-05T11:20:38.047Z,14.30
2018-11-05T11:30:42.816Z,14.00
2018-11-05T11:40:47.267Z,13.50
2018-11-05T11:50:52.104Z,13.30
2018-11-05T12:00:56.827Z,13.60
2018-11-05T12:11:01.319Z,14.20
2018-11-05T12:21:09.626Z,14.30
2018-11-05T12:31:14.275Z,15.30
2018-11-05T12:41:18.941Z,14.80
2018-11-05T12:51:23.720Z,15.20
2018-11-05T13:01:28.990Z,15.00
2018-11-05T13:11:33.798Z,15.10
2018-11-05T13:21:38.482Z,15.40
2018-11-05T13:31:43.047Z,15.60
2018-11-05T13:41:48.737Z,14.90
2018-11-05T13:51:54.018Z,14.60
2018-11-05T14:01:58.762Z,14.20
2018-11-05T14:12:03.490Z,13.90
2018-11-05T14:22:08.272Z,13.80
2018-11-05T14:32:13.090Z,13.60
2018-11-05T14:42:17.675Z,13.40
2018-11-05T14:52:22.537Z,13.20
2018-11-05T15:02:32.276Z,12.90
2018-11-05T15:12:36.868Z,12.80
2018-11-05T15:22:41.319Z,12.60
2018-11-05T15:32:46.207Z,12.60
2018-11-05T15:42:50.772Z,12.50
2018-11-05T15:52:59.121Z,12.40
2018-11-05T16:03:03.322Z,12.40
2018-11-05T16:13:08.145Z,12.30
2018-11-05T16:23:12.863Z,12.40
2018-11-05T16:33:17.450Z,12.30
2018-11-05T16:43:22.163Z,12.20
2018-11-05T16:53:26.626Z,12.20
2018-11-05T17:03:31.268Z,12.10
2018-11-05T17:13:35.994Z,12.20
2018-11-05T17:23:40.901Z,12.20
2018-11-05T17:33:45.657Z,12.20
2018-11-05T17:43:50.259Z,12.20
2018-11-05T17:53:56.090Z,12.20
2018-11-05T18:04:01.003Z,12.10
2018-11-05T18:14:05.758Z,12.10
2018-11-05T18:24:10.434Z,11.90
2018-11-05T18:34:15.229Z,11.70
2018-11-05T18:44:20.214Z,11.60
2018-11-05T18:54:24.769Z,11.50
2018-11-05T19:04:29.543Z,11.60
2018-11-05T19:14:34.030Z,11.40
2018-11-05T19:24:38.649Z,11.40
2018-11-05T19:34:43.143Z,11.40
2018-11-05T19:44:48.007Z,11.40
2018-11-05T19:54:52.760Z,11.50
2018-11-05T20:04:57.643Z,11.60
2018-11-05T20:15:04.306Z,11.50
2018-11-05T20:25:09.358Z,11.60
2018-11-05T20:35:14.184Z,11.50
2018-11-05T20:45:19.391Z,11.40
2018-11-05T20:55:24.243Z,11.40
2018-11-05T21:05:29.214Z,11.40
2018-11-05T21:15:33.900Z,11.40
2018-11-05T21:25:38.615Z,11.40
2018-11-05T21:35:43.312Z,11.30
2018-11-05T21:45:48.131Z,11.30
2018-11-05T21:55:52.948Z,11.20
2018-11-05T22:05:57.677Z,11.20
2018-11-05T22:16:02.384Z,11.20
2018-11-05T22:26:07.101Z,11.10
2018-11-05T22:36:15.502Z,11.10
2018-11-05T22:46:20.194Z,11.10
2018-11-05T22:56:24.714Z,11.10
2018-11-05T23:06:29.330Z,11.10
2018-11-05T23:16:37.780Z,11.00
2018-11-05T23:26:42.454Z,10.90
2018-11-05T23:36:48.165Z,10.90
2018-11-05T23:46:52.736Z,10.90
2018-11-05T23:56:57.346Z,10.90
